Time;durP1;ratioP1;P1;durP2;ratioP2;P2;SDS_P1;SDS_P2;PMS_P1;PMS_P2;Temp;Humidity;BMP_temperature;BMP_pressure;BME280_temperature;BME280_humidity;BME280_pressure;Samples;Min_cycle;Max_cycle;Signal;HPM_P1;HPM_P2
2024/03/22 00:00:35;;;;;;;0.85;0.55;;;;;;;;;;6245789;22;20434;-84
2024/03/22 00:03:01;;;;;;;0.57;0.40;;;;;;;;;;6272686;22;20003;-83
2024/03/22 00:05:27;;;;;;;0.57;0.20;;;;;;;;;;6246116;22;20042;-84
2024/03/22 00:07:55;;;;;;;1.98;0.45;;;;;;;;;;6273046;22;20019;-84
2024/03/22 00:10:21;;;;;;;0.57;0.32;;;;;;;;;;6246167;22;20011;-84
2024/03/22 00:12:49;;;;;;;1.23;0.28;;;;;;;;;;6245349;22;20019;-84
2024/03/22 00:15:15;;;;;;;5.18;1.40;;;;;;;;;;6246123;22;20007;-83
2024/03/22 00:17:43;;;;;;;1.05;0.30;;;;;;;;;;6273167;22;20661;-83
2024/03/22 00:20:09;;;;;;;0.85;0.43;;;;;;;;;;6247147;22;20058;-84
2024/03/22 00:22:35;;;;;;;1.45;0.80;;;;;;;;;;6273331;22;20012;-84
2024/03/22 00:25:01;;;;;;;1.02;0.32;;;;;;;;;;6245382;22;20086;-84
2024/03/22 00:27:27;;;;;;;0.70;0.15;;;;;;;;;;6273040;22;20010;-84
2024/03/22 00:29:53;;;;;;;0.38;0.13;;;;;;;;;;6245267;22;20011;-84
2024/03/22 00:32:20;;;;;;;0.80;0.22;;;;;;;;;;6245649;22;20016;-84
2024/03/22 00:34:45;;;;;;;1.75;0.40;;;;;;;;;;6245025;22;20014;-84
2024/03/22 00:37:11;;;;;;;3.47;0.30;;;;;;;;;;6245670;22;20091;-84
2024/03/22 00:39:37;;;;;;;1.27;0.88;;;;;;;;;;6271946;22;20011;-84
2024/03/22 00:42:04;;;;;;;0.98;0.57;;;;;;;;;;6246244;22;20008;-84
2024/03/22 00:44:30;;;;;;;0.30;0.20;;;;;;;;;;6245705;22;20016;-84
2024/03/22 00:46:56;;;;;;;2.42;0.85;;;;;;;;;;6273510;22;20343;-84
2024/03/22 00:49:22;;;;;;;0.63;0.20;;;;;;;;;;6245458;22;20114;-84
2024/03/22 00:51:48;;;;;;;0.10;0.10;;;;;;;;;;6273661;22;20011;-84
2024/03/22 00:54:14;;;;;;;0.80;0.25;;;;;;;;;;6246452;22;20541;-84
2024/03/22 00:56:40;;;;;;;1.17;0.30;;;;;;;;;;6246820;22;20096;-84
2024/03/22 00:59:06;;;;;;;0.88;0.20;;;;;;;;;;6245514;22;20416;-84
2024/03/22 01:01:32;;;;;;;0.60;0.30;;;;;;;;;;6245869;22;20004;-84
2024/03/22 01:03:58;;;;;;;1.65;0.30;;;;;;;;;;6245546;22;20019;-83
2024/03/22 01:06:27;;;;;;;1.77;0.63;;;;;;;;;;6245492;22;20033;-84
2024/03/22 01:08:53;;;;;;;0.73;0.30;;;;;;;;;;6245539;22;20698;-84
2024/03/22 01:11:19;;;;;;;2.17;0.30;;;;;;;;;;6246718;22;20008;-84
2024/03/22 01:13:45;;;;;;;0.50;0.50;;;;;;;;;;6274426;22;20026;-84
2024/03/22 01:16:11;;;;;;;0.20;0.10;;;;;;;;;;6272423;22;20007;-84
2024/03/22 01:18:38;;;;;;;0.70;0.30;;;;;;;;;;6272254;22;20426;-84
2024/03/22 01:21:05;;;;;;;0.60;0.30;;;;;;;;;;6244691;22;20011;-84
2024/03/22 01:23:33;;;;;;;1.58;1.17;;;;;;;;;;6245621;22;20022;-84
2024/03/22 01:25:59;;;;;;;1.45;0.38;;;;;;;;;;6244588;22;20404;-84
2024/03/22 01:28:25;;;;;;;0.82;0.08;;;;;;;;;;6246371;22;20020;-84
2024/03/22 01:30:51;;;;;;;1.25;0.20;;;;;;;;;;6243890;22;20016;-84
2024/03/22 01:33:17;;;;;;;1.02;0.75;;;;;;;;;;6245503;22;20051;-83
2024/03/22 01:35:43;;;;;;;5.05;0.30;;;;;;;;;;6244400;22;19999;-84
2024/03/22 01:38:10;;;;;;;0.47;0.15;;;;;;;;;;6273051;22;20042;-84
2024/03/22 01:40:36;;;;;;;2.00;0.17;;;;;;;;;;6244095;22;20007;-84
2024/03/22 01:43:04;;;;;;;3.30;0.75;;;;;;;;;;6244662;22;20050;-83
2024/03/22 01:45:32;;;;;;;2.65;0.95;;;;;;;;;;6244467;22;20818;-83
2024/03/22 01:47:59;;;;;;;1.67;0.50;;;;;;;;;;6244884;22;20514;-83
2024/03/22 01:50:33;;;;;;;2.35;0.35;;;;;;;;;;6244919;22;20016;-83
2024/03/22 01:52:59;;;;;;;0.43;0.10;;;;;;;;;;6271964;22;20004;-83
2024/03/22 01:55:34;;;;;;;1.17;0.28;;;;;;;;;;6271100;22;20004;-84
2024/03/22 01:58:00;;;;;;;11.13;0.77;;;;;;;;;;6243744;22;20031;-84
2024/03/22 02:00:27;;;;;;;0.30;0.20;;;;;;;;;;6245184;22;20005;-83
2024/03/22 02:02:53;;;;;;;0.43;0.20;;;;;;;;;;6273680;22;20695;-83
2024/03/22 02:05:20;;;;;;;0.80;0.30;;;;;;;;;;6273440;22;20018;-83
2024/03/22 02:07:47;;;;;;;2.00;0.68;;;;;;;;;;6245014;22;20046;-83
2024/03/22 02:10:16;;;;;;;0.55;0.40;;;;;;;;;;6272531;22;20004;-83
2024/03/22 02:12:42;;;;;;;2.28;0.57;;;;;;;;;;6271792;22;20018;-83
2024/03/22 02:15:08;;;;;;;0.65;0.40;;;;;;;;;;6272858;22;20010;-83
2024/03/22 02:17:34;;;;;;;0.47;0.25;;;;;;;;;;6271964;22;20045;-83
2024/03/22 02:20:01;;;;;;;2.40;0.73;;;;;;;;;;6245230;22;20520;-83
2024/03/22 02:22:27;;;;;;;0.30;0.10;;;;;;;;;;6271849;22;20031;-84
2024/03/22 02:24:53;;;;;;;0.47;0.17;;;;;;;;;;6244699;22;20011;-83
2024/03/22 02:27:19;;;;;;;2.08;0.45;;;;;;;;;;6244493;22;20019;-83
2024/03/22 02:29:46;;;;;;;0.25;0.10;;;;;;;;;;6272559;22;20008;-83
2024/03/22 02:32:13;;;;;;;4.60;0.17;;;;;;;;;;6244031;22;20015;-83
2024/03/22 02:34:39;;;;;;;0.25;0.20;;;;;;;;;;6244783;22;20049;-83
2024/03/22 02:37:05;;;;;;;1.90;0.73;;;;;;;;;;6272159;22;20008;-83
2024/03/22 02:39:31;;;;;;;1.90;0.70;;;;;;;;;;6245485;22;20376;-83
2024/03/22 02:41:57;;;;;;;0.85;0.50;;;;;;;;;;6272549;22;20015;-83
2024/03/22 02:44:23;;;;;;;1.10;0.47;;;;;;;;;;6244706;22;20484;-83
2024/03/22 02:46:49;;;;;;;0.00;0.00;;;;;;;;;;6244852;22;20059;-83
2024/03/22 02:49:15;;;;;;;1.00;0.20;;;;;;;;;;6271271;22;20031;-83
2024/03/22 02:51:41;;;;;;;0.90;0.20;;;;;;;;;;6272530;22;20050;-83
2024/03/22 02:54:07;;;;;;;2.95;0.40;;;;;;;;;;6246078;22;19999;-83
2024/03/22 02:56:33;;;;;;;4.15;0.73;;;;;;;;;;6246548;22;20028;-84
2024/03/22 02:58:59;;;;;;;3.17;0.15;;;;;;;;;;6273360;22;20003;-84
2024/03/22 03:01:25;;;;;;;0.22;0.13;;;;;;;;;;6273996;22;20004;-83
2024/03/22 03:03:53;;;;;;;0.10;0.08;;;;;;;;;;6245961;22;20319;-84
2024/03/22 03:06:19;;;;;;;0.47;0.20;;;;;;;;;;6246748;22;20069;-84
2024/03/22 03:08:46;;;;;;;2.97;0.28;;;;;;;;;;6246485;22;20790;-84
2024/03/22 03:11:12;;;;;;;1.17;0.38;;;;;;;;;;6246595;22;20007;-83
2024/03/22 03:13:38;;;;;;;0.28;0.15;;;;;;;;;;6273633;22;20004;-84
2024/03/22 03:16:04;;;;;;;0.43;0.20;;;;;;;;;;6246139;22;20026;-83
2024/03/22 03:18:30;;;;;;;0.10;0.10;;;;;;;;;;6273527;22;20016;-83
2024/03/22 03:20:56;;;;;;;0.47;0.32;;;;;;;;;;6273749;22;20000;-83
2024/03/22 03:23:22;;;;;;;0.43;0.10;;;;;;;;;;6273958;22;20023;-83
2024/03/22 03:25:51;;;;;;;0.20;0.08;;;;;;;;;;6273913;22;20003;-83
2024/03/22 03:28:18;;;;;;;3.72;1.20;;;;;;;;;;6246541;22;20046;-83
2024/03/22 03:30:47;;;;;;;0.20;0.20;;;;;;;;;;6245896;22;20439;-84
2024/03/22 03:33:16;;;;;;;3.88;0.20;;;;;;;;;;6246414;22;20016;-84
2024/03/22 03:35:46;;;;;;;2.65;0.30;;;;;;;;;;6245344;22;20058;-84
2024/03/22 03:38:12;;;;;;;0.50;0.40;;;;;;;;;;6246450;22;20062;-84
2024/03/22 03:41:04;;;;;;;0.00;0.00;;;;;;;;;;6246251;22;20137;-84
2024/03/22 03:43:30;;;;;;;1.73;0.50;;;;;;;;;;6245762;22;20066;-83
2024/03/22 03:46:04;;;;;;;0.20;0.20;;;;;;;;;;6273884;22;20008;-84
2024/03/22 03:48:39;;;;;;;0.90;0.50;;;;;;;;;;6247714;22;20024;-84
2024/03/22 03:51:07;;;;;;;1.85;0.30;;;;;;;;;;6245878;22;20012;-84
2024/03/22 03:53:37;;;;;;;1.63;0.45;;;;;;;;;;6246190;22;20016;-84
2024/03/22 03:56:05;;;;;;;0.28;0.20;;;;;;;;;;6245370;22;20008;-84
2024/03/22 03:58:31;;;;;;;0.80;0.50;;;;;;;;;;6245754;22;20073;-83
2024/03/22 04:00:58;;;;;;;0.40;0.30;;;;;;;;;;6245796;22;20039;-83
2024/03/22 04:03:24;;;;;;;1.70;1.00;;;;;;;;;;6272470;22;20015;-83
2024/03/22 04:05:59;;;;;;;1.60;0.40;;;;;;;;;;6272800;22;20004;-83
2024/03/22 04:08:26;;;;;;;0.47;0.38;;;;;;;;;;6246658;22;20027;-83
2024/03/22 04:10:58;;;;;;;0.32;0.10;;;;;;;;;;6272979;22;20030;-83
2024/03/22 04:13:25;;;;;;;1.23;0.35;;;;;;;;;;6245999;22;20585;-83
2024/03/22 04:15:51;;;;;;;0.70;0.35;;;;;;;;;;6245818;22;20007;-83
2024/03/22 04:18:17;;;;;;;2.58;0.28;;;;;;;;;;6246264;22;20094;-83
2024/03/22 04:20:43;;;;;;;1.98;0.35;;;;;;;;;;6272637;22;19996;-83
2024/03/22 04:23:09;;;;;;;1.80;0.60;;;;;;;;;;6247099;22;20019;-83
2024/03/22 04:25:35;;;;;;;1.08;0.40;;;;;;;;;;6245322;22;20008;-83
2024/03/22 04:28:02;;;;;;;1.08;0.30;;;;;;;;;;6245898;22;20039;-83
2024/03/22 04:30:28;;;;;;;1.10;0.75;;;;;;;;;;6245416;22;20008;-84
2024/03/22 04:32:54;;;;;;;0.52;0.10;;;;;;;;;;6272964;22;20011;-84
2024/03/22 04:35:20;;;;;;;1.75;0.20;;;;;;;;;;6245332;22;20008;-84
2024/03/22 04:37:46;;;;;;;1.60;0.65;;;;;;;;;;6246707;22;20016;-83
2024/03/22 04:40:13;;;;;;;0.40;0.30;;;;;;;;;;6246638;22;20457;-83
2024/03/22 04:42:39;;;;;;;1.15;0.55;;;;;;;;;;6245974;22;20024;-84
2024/03/22 04:45:05;;;;;;;0.30;0.10;;;;;;;;;;6246072;22;20029;-84
2024/03/22 04:47:31;;;;;;;2.92;1.00;;;;;;;;;;6245514;22;20015;-84
2024/03/22 04:49:57;;;;;;;0.95;0.50;;;;;;;;;;6245388;22;20086;-84
2024/03/22 04:52:23;;;;;;;1.33;0.85;;;;;;;;;;6244810;22;20019;-83
2024/03/22 04:54:49;;;;;;;2.08;0.40;;;;;;;;;;6245947;22;20012;-84
2024/03/22 04:57:15;;;;;;;0.98;0.63;;;;;;;;;;6245541;22;20027;-84
2024/03/22 04:59:41;;;;;;;0.03;0.03;;;;;;;;;;6246386;22;20007;-84
2024/03/22 05:02:07;;;;;;;1.77;0.70;;;;;;;;;;6244709;22;20363;-83
2024/03/22 05:04:33;;;;;;;8.43;0.47;;;;;;;;;;6245716;22;20008;-84
2024/03/22 05:06:59;;;;;;;1.17;0.10;;;;;;;;;;6272361;22;20016;-84
2024/03/22 05:09:25;;;;;;;1.52;0.50;;;;;;;;;;6245581;22;20031;-84
2024/03/22 05:11:51;;;;;;;1.35;0.10;;;;;;;;;;6245147;22;20424;-84
2024/03/22 05:14:18;;;;;;;1.35;0.28;;;;;;;;;;6245674;22;20000;-83
2024/03/22 05:16:44;;;;;;;1.55;0.38;;;;;;;;;;6272532;22;20444;-84
2024/03/22 05:19:10;;;;;;;0.00;0.00;;;;;;;;;;6272923;22;20015;-83
2024/03/22 05:21:37;;;;;;;0.10;0.05;;;;;;;;;;6272277;22;20019;-84
2024/03/22 05:24:03;;;;;;;0.57;0.30;;;;;;;;;;6272869;22;20023;-84
2024/03/22 05:26:32;;;;;;;0.30;0.17;;;;;;;;;;6272405;22;20412;-83
2024/03/22 05:28:58;;;;;;;0.65;0.52;;;;;;;;;;6272591;22;20027;-83
2024/03/22 05:31:24;;;;;;;0.10;0.10;;;;;;;;;;6272623;22;20431;-83
2024/03/22 05:33:50;;;;;;;0.52;0.38;;;;;;;;;;6245529;22;20083;-84
2024/03/22 05:36:16;;;;;;;8.68;1.02;;;;;;;;;;6243876;22;20120;-84
2024/03/22 05:38:42;;;;;;;0.63;0.30;;;;;;;;;;6245226;22;20034;-84
2024/03/22 05:41:08;;;;;;;0.22;0.10;;;;;;;;;;6244777;22;20004;-83
2024/03/22 05:43:34;;;;;;;1.63;0.20;;;;;;;;;;6244937;22;20012;-83
2024/03/22 05:46:00;;;;;;;9.02;0.40;;;;;;;;;;6245350;22;20017;-84
2024/03/22 05:48:29;;;;;;;1.90;0.32;;;;;;;;;;6245125;22;20549;-84
2024/03/22 05:50:55;;;;;;;0.73;0.22;;;;;;;;;;6272409;22;20004;-83
2024/03/22 05:53:21;;;;;;;0.52;0.38;;;;;;;;;;6271866;22;20012;-83
2024/03/22 05:55:47;;;;;;;0.45;0.25;;;;;;;;;;6273110;22;19999;-83
2024/03/22 05:58:13;;;;;;;7.65;0.60;;;;;;;;;;6271904;22;20822;-83
2024/03/22 06:00:39;;;;;;;0.88;0.55;;;;;;;;;;6271951;22;20013;-83
2024/03/22 06:03:05;;;;;;;1.17;0.57;;;;;;;;;;6272838;22;20726;-83
2024/03/22 06:05:31;;;;;;;2.08;0.70;;;;;;;;;;6271825;22;20008;-82
2024/03/22 06:07:57;;;;;;;2.25;0.50;;;;;;;;;;6246054;22;20510;-83
2024/03/22 06:10:23;;;;;;;2.20;1.13;;;;;;;;;;6274232;22;20054;-82
2024/03/22 06:12:49;;;;;;;1.63;0.25;;;;;;;;;;6246598;22;20027;-83
2024/03/22 06:15:16;;;;;;;0.65;0.20;;;;;;;;;;6273480;22;20028;-82
2024/03/22 06:17:42;;;;;;;0.20;0.10;;;;;;;;;;6246373;22;20010;-83
2024/03/22 06:20:09;;;;;;;1.08;0.52;;;;;;;;;;6275734;22;20075;-83
2024/03/22 06:22:35;;;;;;;7.10;0.35;;;;;;;;;;6272615;22;20012;-86
2024/03/22 06:25:04;;;;;;;1.48;0.38;;;;;;;;;;6274825;22;20011;-89
2024/03/22 06:27:36;;;;;;;2.30;0.63;;;;;;;;;;6247537;22;20086;-87
2024/03/22 06:30:03;;;;;;;1.63;0.77;;;;;;;;;;6249841;22;20331;-85
2024/03/22 06:32:29;;;;;;;1.10;0.35;;;;;;;;;;6245126;22;20018;-83
2024/03/22 06:34:55;;;;;;;1.40;0.40;;;;;;;;;;6274343;22;20471;-83
2024/03/22 06:37:21;;;;;;;1.23;0.20;;;;;;;;;;6276201;22;20034;-84
2024/03/22 06:39:47;;;;;;;5.90;1.08;;;;;;;;;;6276921;22;20420;-84
2024/03/22 06:42:16;;;;;;;0.70;0.52;;;;;;;;;;6275135;22;20004;-87
2024/03/22 06:44:45;;;;;;;1.27;0.50;;;;;;;;;;6275939;22;20288;-87
2024/03/22 06:47:13;;;;;;;1.10;0.50;;;;;;;;;;6278942;22;20015;-86
2024/03/22 06:49:39;;;;;;;0.75;0.30;;;;;;;;;;6252043;22;20091;-87
2024/03/22 06:52:08;;;;;;;3.95;0.28;;;;;;;;;;6250714;22;20020;-86
2024/03/22 06:54:36;;;;;;;0.82;0.25;;;;;;;;;;6248210;22;20003;-87
2024/03/22 06:57:05;;;;;;;1.33;0.43;;;;;;;;;;6246663;22;20042;-87
2024/03/22 06:59:41;;;;;;;0.55;0.35;;;;;;;;;;6247890;22;20435;-86
2024/03/22 07:02:10;;;;;;;0.13;0.10;;;;;;;;;;6246975;22;20440;-87
2024/03/22 07:04:45;;;;;;;0.40;0.22;;;;;;;;;;6247626;22;20050;-86
2024/03/22 07:07:11;;;;;;;0.45;0.40;;;;;;;;;;6246895;22;20090;-86
2024/03/22 07:09:39;;;;;;;1.83;0.88;;;;;;;;;;6245688;22;20016;-86
2024/03/22 07:12:16;;;;;;;0.28;0.10;;;;;;;;;;6247285;22;20037;-87
2024/03/22 07:14:42;;;;;;;1.67;0.70;;;;;;;;;;6246220;22;20011;-86
2024/03/22 07:17:11;;;;;;;0.93;0.70;;;;;;;;;;6246982;22;20012;-87
2024/03/22 07:19:43;;;;;;;8.95;0.30;;;;;;;;;;6247571;22;20000;-87
2024/03/22 07:22:13;;;;;;;2.60;1.53;;;;;;;;;;6247854;22;20019;-87
2024/03/22 07:24:39;;;;;;;1.60;0.50;;;;;;;;;;6246685;22;20230;-86
2024/03/22 07:27:08;;;;;;;1.25;0.47;;;;;;;;;;6246631;22;20008;-86
2024/03/22 07:29:34;;;;;;;1.10;0.47;;;;;;;;;;6246271;22;20347;-86
2024/03/22 07:32:03;;;;;;;1.90;0.43;;;;;;;;;;6246272;22;20142;-86
2024/03/22 07:34:36;;;;;;;0.20;0.10;;;;;;;;;;6245827;22;20035;-86
2024/03/22 07:37:04;;;;;;;0.38;0.38;;;;;;;;;;6247107;22;20069;-86
2024/03/22 07:39:34;;;;;;;0.85;0.40;;;;;;;;;;6245937;22;20011;-86
2024/03/22 07:42:03;;;;;;;1.23;0.50;;;;;;;;;;6246860;22;20011;-85
2024/03/22 07:44:31;;;;;;;2.35;0.43;;;;;;;;;;6246253;22;20343;-86
2024/03/22 07:47:15;;;;;;;0.22;0.20;;;;;;;;;;6246793;22;20423;-86
2024/03/22 07:50:04;;;;;;;0.50;0.20;;;;;;;;;;6238496;23;20074;-87
2024/03/22 07:52:39;;;;;;;1.08;0.20;;;;;;;;;;6213352;23;20098;-86
2024/03/22 07:55:08;;;;;;;2.67;0.77;;;;;;;;;;6240144;23;20019;-87
2024/03/22 07:57:36;;;;;;;1.85;0.43;;;;;;;;;;6241070;23;20067;-87
2024/03/22 08:00:05;;;;;;;0.77;0.32;;;;;;;;;;6239692;23;20919;-86
2024/03/22 08:02:38;;;;;;;1.23;0.68;;;;;;;;;;6239613;23;20059;-87
2024/03/22 08:05:07;;;;;;;0.40;0.25;;;;;;;;;;6238697;23;20023;-86
2024/03/22 08:07:46;;;;;;;0.10;0.10;;;;;;;;;;6239409;23;20534;-86
2024/03/22 08:10:22;;;;;;;;;;;;;;;;;;;;;
2024/03/22 08:12:53;;;;;;;2.30;0.25;;;;;;;;;;6237271;23;20016;-86
2024/03/22 08:15:50;;;;;;;0.15;0.10;;;;;;;;;;6239167;23;20015;-87
2024/03/22 08:18:32;;;;;;;0.28;0.10;;;;;;;;;;6238942;23;20066;-87
2024/03/22 08:21:17;;;;;;;0.10;0.10;;;;;;;;;;6245870;22;20007;-87
2024/03/22 08:23:51;;;;;;;0.45;0.17;;;;;;;;;;6246804;22;20250;-87
2024/03/22 08:26:20;;;;;;;2.53;0.75;;;;;;;;;;6246024;22;20015;-87
2024/03/22 08:29:11;;;;;;;0.20;0.17;;;;;;;;;;6245130;22;20011;-87
2024/03/22 08:31:37;;;;;;;1.92;0.57;;;;;;;;;;6247164;22;20058;-87
2024/03/22 08:34:05;;;;;;;42.45;1.60;;;;;;;;;;6247833;22;20130;-87
2024/03/22 08:36:31;;;;;;;0.68;0.10;;;;;;;;;;6246777;22;20633;-87
2024/03/22 08:39:00;;;;;;;8.10;0.43;;;;;;;;;;6246864;22;20094;-87
2024/03/22 08:41:36;;;;;;;1.92;0.60;;;;;;;;;;6244723;22;20321;-87
2024/03/22 08:44:08;;;;;;;1.17;0.20;;;;;;;;;;6246134;22;20098;-87
2024/03/22 08:46:37;;;;;;;0.63;0.20;;;;;;;;;;6245283;22;20022;-87
2024/03/22 08:49:25;;;;;;;;;;;;;;;;;;;;;
2024/03/22 08:52:00;;;;;;;0.52;0.20;;;;;;;;;;6272240;22;20083;-86
2024/03/22 08:54:35;;;;;;;1.27;0.68;;;;;;;;;;6245857;22;20523;-86
2024/03/22 08:57:01;;;;;;;3.70;0.40;;;;;;;;;;6245253;22;20019;-87
2024/03/22 08:59:30;;;;;;;0.50;0.10;;;;;;;;;;6246197;22;20004;-87
2024/03/22 09:01:59;;;;;;;1.85;1.00;;;;;;;;;;6245332;22;20042;-87
2024/03/22 09:04:25;;;;;;;0.13;0.10;;;;;;;;;;6245293;22;20045;-86
2024/03/22 09:06:51;;;;;;;0.50;0.38;;;;;;;;;;6245790;22;20003;-86
2024/03/22 09:09:26;;;;;;;0.98;0.63;;;;;;;;;;6247619;22;20004;-87
2024/03/22 09:11:52;;;;;;;1.50;0.95;;;;;;;;;;6246801;22;20015;-87
2024/03/22 09:14:24;;;;;;;0.63;0.43;;;;;;;;;;6247384;22;20404;-86
2024/03/22 09:17:11;;;;;;;0.68;0.50;;;;;;;;;;6245695;22;20020;-87
2024/03/22 09:19:37;;;;;;;1.27;0.82;;;;;;;;;;6246442;22;20012;-87
2024/03/22 09:22:23;;;;;;;1.83;0.47;;;;;;;;;;6244527;22;20027;-87
2024/03/22 09:25:07;;;;;;;4.03;0.30;;;;;;;;;;6246051;22;20019;-87
2024/03/22 09:27:36;;;;;;;1.75;0.30;;;;;;;;;;6244989;22;20016;-87
2024/03/22 09:30:03;;;;;;;6.97;0.75;;;;;;;;;;6245791;22;20035;-87
2024/03/22 09:32:30;;;;;;;0.45;0.10;;;;;;;;;;6244270;22;20024;-87
2024/03/22 09:34:58;;;;;;;1.90;0.73;;;;;;;;;;6245706;22;20003;-87
2024/03/22 09:37:24;;;;;;;1.73;1.05;;;;;;;;;;6245149;22;20304;-87
2024/03/22 09:39:50;;;;;;;0.65;0.30;;;;;;;;;;6245885;22;20011;-87
2024/03/22 09:42:18;;;;;;;3.17;0.22;;;;;;;;;;6244203;22;20043;-86
2024/03/22 09:44:51;;;;;;;6.88;0.30;;;;;;;;;;6274001;22;20654;-87
2024/03/22 09:47:43;;;;;;;1.20;0.20;;;;;;;;;;6244502;22;20007;-87
2024/03/22 09:50:19;;;;;;;;;;;;;;;;;;;;;
2024/03/22 09:52:49;;;;;;;6.57;0.55;;;;;;;;;;6272589;22;20020;-86
2024/03/22 09:55:22;;;;;;;1.88;0.20;;;;;;;;;;6245415;22;20008;-87
2024/03/22 09:57:50;;;;;;;1.15;0.25;;;;;;;;;;6244095;22;20019;-86
2024/03/22 10:00:18;;;;;;;0.85;0.52;;;;;;;;;;6245291;22;20039;-87
2024/03/22 10:02:47;;;;;;;0.73;0.30;;;;;;;;;;6243557;22;20046;-87
2024/03/22 10:05:13;;;;;;;0.82;0.40;;;;;;;;;;6245409;22;20054;-87
2024/03/22 10:07:43;;;;;;;3.50;0.75;;;;;;;;;;6244473;22;20351;-87
2024/03/22 10:10:10;;;;;;;0.75;0.22;;;;;;;;;;6272859;22;20010;-87
2024/03/22 10:12:36;;;;;;;1.02;0.10;;;;;;;;;;6271949;22;20407;-86
2024/03/22 10:15:02;;;;;;;0.55;0.35;;;;;;;;;;6245127;22;20007;-86
2024/03/22 10:17:29;;;;;;;3.33;0.20;;;;;;;;;;6244619;22;20012;-86
2024/03/22 10:19:56;;;;;;;0.45;0.17;;;;;;;;;;6244718;22;20004;-87
2024/03/22 10:22:22;;;;;;;2.45;0.38;;;;;;;;;;6245892;22;20041;-86
2024/03/22 10:24:48;;;;;;;1.02;0.40;;;;;;;;;;6246328;22;20015;-85
2024/03/22 10:27:14;;;;;;;0.93;0.47;;;;;;;;;;6273424;22;20012;-86
2024/03/22 10:29:41;;;;;;;0.10;0.10;;;;;;;;;;6244498;22;20015;-86
2024/03/22 10:32:07;;;;;;;0.73;0.40;;;;;;;;;;6271641;22;20019;-86
2024/03/22 10:34:33;;;;;;;0.30;0.10;;;;;;;;;;6270986;22;20004;-86
2024/03/22 10:37:01;;;;;;;0.50;0.15;;;;;;;;;;6244267;22;20016;-86
2024/03/22 10:39:28;;;;;;;1.02;0.25;;;;;;;;;;6271440;22;19999;-86
2024/03/22 10:41:54;;;;;;;0.20;0.10;;;;;;;;;;6272140;22;20035;-87
2024/03/22 10:44:21;;;;;;;1.83;0.82;;;;;;;;;;6243973;22;20168;-86
2024/03/22 10:46:48;;;;;;;1.40;0.82;;;;;;;;;;6272193;22;20007;-86
2024/03/22 10:49:22;;;;;;;1.10;0.30;;;;;;;;;;6244212;22;20004;-87
2024/03/22 10:52:01;;;;;;;1.50;0.68;;;;;;;;;;6245148;22;20015;-87
2024/03/22 10:54:29;;;;;;;2.55;0.10;;;;;;;;;;6244581;22;20180;-87
2024/03/22 10:56:56;;;;;;;0.30;0.10;;;;;;;;;;6245505;22;20070;-87
2024/03/22 10:59:25;;;;;;;0.20;0.10;;;;;;;;;;6245774;22;20416;-86
2024/03/22 11:01:52;;;;;;;3.30;0.80;;;;;;;;;;6246891;22;20443;-87
2024/03/22 11:04:18;;;;;;;0.85;0.20;;;;;;;;;;6244271;22;20003;-87
2024/03/22 11:06:48;;;;;;;0.88;0.15;;;;;;;;;;6244670;22;20107;-87
2024/03/22 11:09:25;;;;;;;0.60;0.40;;;;;;;;;;6244234;22;20058;-86
2024/03/22 11:11:52;;;;;;;0.47;0.20;;;;;;;;;;6244180;22;20015;-86
2024/03/22 11:14:20;;;;;;;0.80;0.20;;;;;;;;;;6246071;22;20090;-86
2024/03/22 11:16:46;;;;;;;0.20;0.10;;;;;;;;;;6246031;22;20015;-86
2024/03/22 11:19:12;;;;;;;0.17;0.10;;;;;;;;;;6246820;22;20014;-86
2024/03/22 11:21:38;;;;;;;1.05;0.30;;;;;;;;;;6246548;22;20018;-86
2024/03/22 11:24:07;;;;;;;1.58;0.30;;;;;;;;;;6274118;22;20014;-86
2024/03/22 11:26:34;;;;;;;0.15;0.10;;;;;;;;;;6245863;22;20073;-87
2024/03/22 11:29:02;;;;;;;1.25;0.30;;;;;;;;;;6246368;22;20698;-86
2024/03/22 11:31:29;;;;;;;0.68;0.30;;;;;;;;;;6246379;22;20046;-86
2024/03/22 11:33:55;;;;;;;0.20;0.10;;;;;;;;;;6248224;22;20426;-87
2024/03/22 11:36:22;;;;;;;0.60;0.40;;;;;;;;;;6274915;22;20031;-86
2024/03/22 11:38:53;;;;;;;0.57;0.20;;;;;;;;;;6249775;22;19999;-86
2024/03/22 11:41:27;;;;;;;1.23;0.20;;;;;;;;;;6273918;22;20011;-86
2024/03/22 11:43:55;;;;;;;0.40;0.20;;;;;;;;;;6246670;22;20098;-86
2024/03/22 11:46:22;;;;;;;1.55;0.95;;;;;;;;;;6246511;22;20043;-86
2024/03/22 11:48:57;;;;;;;2.28;0.10;;;;;;;;;;6246814;22;20012;-86
2024/03/22 11:51:34;;;;;;;1.05;0.10;;;;;;;;;;6246403;22;20118;-86
2024/03/22 11:54:10;;;;;;;1.15;0.10;;;;;;;;;;6246370;22;20019;-86
2024/03/22 11:56:43;;;;;;;0.20;0.10;;;;;;;;;;6245665;22;20012;-86
2024/03/22 11:59:09;;;;;;;0.20;0.10;;;;;;;;;;6246171;22;20008;-86
2024/03/22 12:01:38;;;;;;;0.93;0.47;;;;;;;;;;6245647;22;20022;-87
2024/03/22 12:04:14;;;;;;;0.77;0.15;;;;;;;;;;6246942;22;20011;-87
2024/03/22 12:06:57;;;;;;;0.08;0.00;;;;;;;;;;6273522;22;20085;-86
2024/03/22 12:09:26;;;;;;;2.08;0.10;;;;;;;;;;6247177;22;20431;-86
2024/03/22 12:12:06;;;;;;;0.52;0.47;;;;;;;;;;6247368;22;20015;-87
2024/03/22 12:14:53;;;;;;;1.65;0.40;;;;;;;;;;6274718;22;20041;-87
2024/03/22 12:17:19;;;;;;;0.73;0.10;;;;;;;;;;6245642;22;20008;-86
2024/03/22 12:19:47;;;;;;;0.47;0.20;;;;;;;;;;6273396;22;20026;-86
2024/03/22 12:22:16;;;;;;;1.23;0.50;;;;;;;;;;6245456;22;20331;-86
2024/03/22 12:24:42;;;;;;;0.43;0.30;;;;;;;;;;6245955;22;20016;-86
2024/03/22 12:27:08;;;;;;;0.55;0.15;;;;;;;;;;6272860;22;20014;-86
2024/03/22 12:29:34;;;;;;;0.52;0.20;;;;;;;;;;6246197;22;20126;-86
2024/03/22 12:32:03;;;;;;;2.15;0.30;;;;;;;;;;6245846;22;20130;-86
2024/03/22 12:34:33;;;;;;;0.52;0.17;;;;;;;;;;6272592;22;20011;-86
2024/03/22 12:36:59;;;;;;;0.75;0.10;;;;;;;;;;6272655;22;20004;-86
2024/03/22 12:39:26;;;;;;;1.10;0.20;;;;;;;;;;6244669;22;20013;-86
2024/03/22 12:41:52;;;;;;;0.75;0.10;;;;;;;;;;6272608;22;20004;-86
2024/03/22 12:44:18;;;;;;;0.10;0.10;;;;;;;;;;6272580;22;20466;-85
2024/03/22 12:46:46;;;;;;;0.25;0.20;;;;;;;;;;6246757;22;20015;-86
2024/03/22 12:49:15;;;;;;;1.75;0.47;;;;;;;;;;6273228;22;20435;-86
2024/03/22 12:51:41;;;;;;;0.70;0.35;;;;;;;;;;6245873;22;20018;-86
2024/03/22 12:54:10;;;;;;;1.30;0.22;;;;;;;;;;6271502;22;20007;-86
2024/03/22 12:56:52;;;;;;;;;;;;;;;;;;;;;
2024/03/22 12:59:19;;;;;;;0.50;0.08;;;;;;;;;;6272811;22;20011;-86
2024/03/22 13:05:11;;;;;;;1.30;0.10;;;;;;;;;;6271744;22;20023;-86
2024/03/22 13:08:00;;;;;;;;;;;;;;;;;;;;;
2024/03/22 13:10:43;;;;;;;0.40;0.10;;;;;;;;;;6272367;22;20098;-86
2024/03/22 13:13:29;;;;;;;0.55;0.10;;;;;;;;;;6246843;22;20435;-86
2024/03/22 13:15:57;;;;;;;0.20;0.20;;;;;;;;;;6245844;22;20058;-86
2024/03/22 13:18:26;;;;;;;2.17;0.10;;;;;;;;;;6274811;22;20002;-86
2024/03/22 13:20:52;;;;;;;0.25;0.10;;;;;;;;;;6246781;22;20008;-85
2024/03/22 13:23:20;;;;;;;0.40;0.10;;;;;;;;;;6247398;22;20052;-86
2024/03/22 13:25:49;;;;;;;1.30;0.73;;;;;;;;;;6246034;22;20042;-86
2024/03/22 13:28:43;;;;;;;1.25;0.80;;;;;;;;;;6246287;22;20008;-86
2024/03/22 13:31:21;;;;;;;1.65;0.30;;;;;;;;;;6245175;22;20522;-86
2024/03/22 13:33:55;;;;;;;2.92;0.17;;;;;;;;;;6243283;22;20012;-86
2024/03/22 13:36:41;;;;;;;0.30;0.20;;;;;;;;;;6244375;22;20020;-86
2024/03/22 13:39:36;;;;;;;0.32;0.00;;;;;;;;;;6244779;22;20020;-86
2024/03/22 13:42:12;;;;;;;1.17;0.10;;;;;;;;;;6245789;22;20045;-86
2024/03/22 13:44:40;;;;;;;0.75;0.28;;;;;;;;;;6245010;22;20016;-86
2024/03/22 13:47:14;;;;;;;2.33;0.20;;;;;;;;;;6245845;22;20035;-86
2024/03/22 13:50:23;;;;;;;1.00;0.20;;;;;;;;;;6245072;22;20019;-86
2024/03/22 13:53:02;;;;;;;0.93;0.30;;;;;;;;;;6245272;22;20046;-86
2024/03/22 13:59:15;;;;;;;0.20;0.10;;;;;;;;;;6272906;22;20047;-86
2024/03/22 14:05:27;;;;;;;0.90;0.10;;;;;;;;;;6269111;22;20015;-86
2024/03/22 14:08:03;;;;;;;0.22;0.10;;;;;;;;;;6243942;22;20020;-86
2024/03/22 14:13:46;;;;;;;0.20;0.10;;;;;;;;;;6242260;22;20030;-87
2024/03/22 14:16:12;;;;;;;;;;;;;;;;;;6246221;22;20000;-86
2024/03/22 14:21:28;;;;;;;0.70;0.30;;;;;;;;;;6247159;22;20055;-88
2024/03/22 14:24:15;;;;;;;0.00;0.00;;;;;;;;;;6209252;23;20012;-87
2024/03/22 14:58:29;;;;;;;0.32;0.08;;;;;;;;;;6176186;22;20082;-86
2024/03/22 15:31:13;;;;;;;0.47;0.10;;;;;;;;;;6184115;23;20034;-85
2024/03/22 15:33:39;;;;;;;1.10;0.20;;;;;;;;;;6185311;23;20681;-86
2024/03/22 15:36:05;;;;;;;0.65;0.52;;;;;;;;;;6186478;23;20480;-85
2024/03/22 15:38:32;;;;;;;0.68;0.15;;;;;;;;;;6190129;23;20041;-85
2024/03/22 15:41:00;;;;;;;0.10;0.10;;;;;;;;;;6189971;23;20064;-86
2024/03/22 15:43:26;;;;;;;0.17;0.15;;;;;;;;;;6188370;23;20012;-85
2024/03/22 15:45:52;;;;;;;0.82;0.25;;;;;;;;;;6186676;23;20059;-85
2024/03/22 15:51:54;;;;;;;0.28;0.10;;;;;;;;;;6215260;23;20440;-86
2024/03/22 15:54:53;;;;;;;0.43;0.20;;;;;;;;;;6179577;23;20060;-86
2024/03/22 15:57:55;;;;;;;1.20;0.50;;;;;;;;;;6034743;23;20019;-86
2024/03/22 16:10:23;;;;;;;1.38;0.47;;;;;;;;;;6209108;23;20109;-87
2024/03/22 16:20:00;;;;;;;0.45;0.10;;;;;;;;;;6091992;23;20026;-85
2024/03/22 16:22:38;;;;;;;7.78;0.43;;;;;;;;;;6022449;23;20015;-84
2024/03/22 16:25:07;;;;;;;2.20;0.32;;;;;;;;;;6210551;23;20068;-86
2024/03/22 16:39:25;;;;;;;;;;;;;;;;;;;;;
2024/03/22 16:45:19;;;;;;;2.00;0.88;;;;;;;;;;6233788;22;20015;-85
